createdAt,value
2023-03-29T00:00:14.134Z,-0.20
2023-03-29T00:05:23.041Z,-0.10
2023-03-29T00:10:28.872Z,-0.10
2023-03-29T00:15:33.632Z,0.10
2023-03-29T00:20:37.616Z,0.10
2023-03-29T00:25:45.842Z,0.20
2023-03-29T00:30:53.095Z,0.20
2023-03-29T00:35:56.887Z,0.30
2023-03-29T00:41:03.197Z,0.30
2023-03-29T00:46:08.093Z,0.40
2023-03-29T00:51:14.343Z,0.50
2023-03-29T00:56:24.278Z,0.50
2023-03-29T01:01:34.138Z,0.50
2023-03-29T01:06:43.508Z,0.60
2023-03-29T01:11:53.089Z,0.70
2023-03-29T01:16:57.873Z,0.70
2023-03-29T01:22:13.723Z,0.80
2023-03-29T01:27:34.282Z,0.90
2023-03-29T01:32:45.047Z,1.00
2023-03-29T01:37:56.780Z,1.20
2023-03-29T01:43:11.600Z,1.40
2023-03-29T01:48:21.029Z,1.40
2023-03-29T01:53:29.712Z,1.60
2023-03-29T01:58:38.330Z,1.60
2023-03-29T02:03:47.314Z,1.70
2023-03-29T02:08:53.077Z,1.80
2023-03-29T02:13:58.630Z,2.00
2023-03-29T02:19:03.526Z,2.10
2023-03-29T02:24:11.294Z,2.20
2023-03-29T02:29:17.233Z,2.10
2023-03-29T02:34:24.980Z,2.20
2023-03-29T02:39:31.819Z,2.20
2023-03-29T02:44:40.789Z,2.20
2023-03-29T02:49:44.762Z,2.20
2023-03-29T02:54:51.282Z,2.10
2023-03-29T02:59:58.841Z,2.00
2023-03-29T03:05:02.472Z,1.90
2023-03-29T03:10:08.413Z,1.90
2023-03-29T03:15:15.181Z,1.90
2023-03-29T03:20:18.720Z,1.70
2023-03-29T03:25:22.375Z,1.60
2023-03-29T03:30:28.806Z,1.50
2023-03-29T03:36:06.460Z,1.40
2023-03-29T03:41:12.706Z,1.40
2023-03-29T03:46:19.083Z,1.40
2023-03-29T03:51:23.487Z,1.30
2023-03-29T03:56:30.117Z,1.40
2023-03-29T04:01:43.837Z,1.60
2023-03-29T04:07:02.551Z,1.70
2023-03-29T04:12:25.740Z,1.70
2023-03-29T04:17:30.984Z,1.60
2023-03-29T04:22:37.556Z,1.60
2023-03-29T04:27:41.769Z,1.60
2023-03-29T04:32:55.935Z,1.70
2023-03-29T04:38:00.432Z,1.70
2023-03-29T04:43:06.364Z,1.90
2023-03-29T04:48:12.415Z,2.00
2023-03-29T04:53:21.194Z,1.90
2023-03-29T04:58:31.644Z,1.80
2023-03-29T05:03:38.327Z,2.00
2023-03-29T05:08:52.360Z,2.00
2023-03-29T05:14:03.327Z,2.30
2023-03-29T05:19:13.024Z,2.30
2023-03-29T05:24:22.502Z,2.60
2023-03-29T05:29:49.192Z,2.70
2023-03-29T05:35:25.660Z,2.80
2023-03-29T05:40:32.708Z,2.90
2023-03-29T05:46:00.348Z,3.10
2023-03-29T05:51:09.458Z,3.40
2023-03-29T05:56:28.710Z,3.70
2023-03-29T06:01:32.426Z,4.00
2023-03-29T06:06:41.860Z,4.20
2023-03-29T06:11:47.692Z,4.30
2023-03-29T06:17:02.475Z,4.70
2023-03-29T06:22:06.603Z,5.00
2023-03-29T06:27:14.397Z,5.40
2023-03-29T06:32:20.185Z,5.30
2023-03-29T06:37:29.219Z,5.30
2023-03-29T06:42:47.263Z,5.60
2023-03-29T06:48:17.489Z,5.70
2023-03-29T06:53:22.291Z,6.00
2023-03-29T06:58:34.392Z,6.20
2023-03-29T07:03:46.767Z,6.40
2023-03-29T07:08:53.715Z,6.50
2023-03-29T07:14:13.498Z,6.80
2023-03-29T07:19:17.109Z,6.80
2023-03-29T07:24:32.852Z,6.80
2023-03-29T07:29:38.017Z,7.60
2023-03-29T07:34:42.335Z,7.60
2023-03-29T07:39:52.080Z,7.90
2023-03-29T07:45:16.471Z,8.00
2023-03-29T07:50:34.403Z,8.10
2023-03-29T07:55:47.704Z,8.40
2023-03-29T08:01:18.823Z,9.20
2023-03-29T08:06:43.606Z,9.10
2023-03-29T08:11:47.798Z,9.60
2023-03-29T08:17:02.418Z,10.10
2023-03-29T08:22:07.600Z,10.80
2023-03-29T08:27:30.329Z,11.50
2023-03-29T08:32:36.971Z,11.70
2023-03-29T08:37:42.174Z,12.90
2023-03-29T08:43:07.665Z,12.90
2023-03-29T08:48:35.956Z,13.20
2023-03-29T08:53:47.045Z,14.30
2023-03-29T08:59:29.257Z,14.40
2023-03-29T09:04:39.047Z,13.90
2023-03-29T09:10:04.130Z,14.90
2023-03-29T09:15:19.731Z,13.80
2023-03-29T09:20:46.175Z,13.60
2023-03-29T09:26:02.222Z,14.10
2023-03-29T09:31:27.342Z,14.50
2023-03-29T09:36:42.550Z,15.10
2023-03-29T09:41:52.328Z,14.80
2023-03-29T09:47:01.830Z,15.10
2023-03-29T09:52:14.192Z,16.10
2023-03-29T09:57:22.531Z,16.20
2023-03-29T10:02:31.622Z,16.10
2023-03-29T10:07:46.531Z,15.10
2023-03-29T10:12:54.254Z,14.50
2023-03-29T10:18:00.854Z,13.90
2023-03-29T10:23:10.335Z,14.20
2023-03-29T10:28:17.813Z,14.30
2023-03-29T10:33:24.244Z,14.30
2023-03-29T10:38:30.267Z,13.40
2023-03-29T10:43:39.521Z,13.20
2023-03-29T10:48:47.546Z,13.30
2023-03-29T10:53:52.785Z,13.00
2023-03-29T10:59:04.917Z,13.00
2023-03-29T11:04:20.838Z,12.30
2023-03-29T11:09:42.440Z,12.30
2023-03-29T11:14:55.706Z,12.80
2023-03-29T11:20:18.804Z,13.70
2023-03-29T11:25:44.065Z,14.20
2023-03-29T11:30:56.357Z,13.60
2023-03-29T11:36:09.768Z,14.00
2023-03-29T11:41:18.780Z,14.40
2023-03-29T11:46:29.137Z,14.40
2023-03-29T11:51:37.785Z,13.70
2023-03-29T11:56:47.358Z,13.80
2023-03-29T12:01:55.573Z,14.10
2023-03-29T12:07:10.209Z,14.90
2023-03-29T12:12:19.607Z,14.90
2023-03-29T12:17:30.805Z,14.50
2023-03-29T12:22:37.979Z,14.20
2023-03-29T12:27:55.028Z,13.70
2023-03-29T12:33:18.375Z,13.60
2023-03-29T12:38:44.009Z,13.70
2023-03-29T12:44:24.015Z,13.30
2023-03-29T12:49:34.477Z,13.00
2023-03-29T12:54:38.451Z,12.90
2023-03-29T12:59:46.941Z,12.70
2023-03-29T13:04:53.500Z,12.60
2023-03-29T13:09:58.836Z,12.90
2023-03-29T13:15:05.483Z,13.10
2023-03-29T13:20:38.311Z,12.80
2023-03-29T13:25:55.619Z,12.60
2023-03-29T13:31:05.341Z,12.70
2023-03-29T13:36:17.926Z,12.50
2023-03-29T13:41:31.349Z,12.50
2023-03-29T13:46:42.073Z,12.40
2023-03-29T13:52:02.458Z,12.40
2023-03-29T13:57:13.803Z,12.70
2023-03-29T14:02:29.334Z,12.60
2023-03-29T14:07:37.256Z,12.60
2023-03-29T14:12:42.140Z,12.60
2023-03-29T14:17:48.137Z,12.10
2023-03-29T14:22:51.943Z,11.80
2023-03-29T14:27:55.509Z,11.70
2023-03-29T14:33:05.055Z,11.80
2023-03-29T14:38:12.717Z,11.80
2023-03-29T14:43:19.363Z,11.70
2023-03-29T14:48:25.093Z,11.80
2023-03-29T14:53:31.899Z,12.00
2023-03-29T14:58:36.783Z,11.80
2023-03-29T15:03:49.673Z,11.70
2023-03-29T15:09:04.883Z,11.70
2023-03-29T15:14:16.293Z,11.50
2023-03-29T15:19:25.511Z,11.40
2023-03-29T15:24:31.488Z,11.40
2023-03-29T15:29:38.363Z,11.50
2023-03-29T15:34:43.954Z,11.50
2023-03-29T15:39:48.145Z,11.70
2023-03-29T15:44:54.773Z,11.50
2023-03-29T15:49:59.652Z,11.90
2023-03-29T15:55:04.015Z,11.60
2023-03-29T16:00:13.756Z,11.60
2023-03-29T16:05:20.077Z,11.60
2023-03-29T16:10:23.593Z,11.60
2023-03-29T16:15:27.253Z,11.50
2023-03-29T16:20:32.385Z,11.50
2023-03-29T16:25:38.397Z,11.50
2023-03-29T16:30:42.455Z,11.40
2023-03-29T16:35:47.624Z,11.10
2023-03-29T16:40:51.365Z,10.90
2023-03-29T16:45:54.878Z,10.90
2023-03-29T16:50:59.920Z,10.70
2023-03-29T16:56:04.013Z,10.60
2023-03-29T17:01:09.728Z,10.50
2023-03-29T17:06:14.983Z,10.40
2023-03-29T17:11:23.085Z,10.30
2023-03-29T17:16:28.958Z,10.30
2023-03-29T17:21:34.271Z,10.20
2023-03-29T17:26:38.314Z,10.20
2023-03-29T17:31:47.860Z,10.10
2023-03-29T17:36:53.506Z,10.10
2023-03-29T17:41:56.951Z,10.00
2023-03-29T17:47:01.089Z,10.00
2023-03-29T17:52:07.059Z,9.90
2023-03-29T17:57:10.778Z,9.80
2023-03-29T18:02:17.697Z,9.70
2023-03-29T18:07:22.949Z,9.60
2023-03-29T18:12:27.053Z,9.60
2023-03-29T18:17:31.514Z,9.50
2023-03-29T18:22:37.176Z,9.50
2023-03-29T18:27:41.022Z,9.60
2023-03-29T18:32:45.092Z,9.60
2023-03-29T18:37:52.288Z,9.50
2023-03-29T18:42:57.840Z,9.50
2023-03-29T18:48:02.238Z,9.60
2023-03-29T18:53:08.008Z,9.50
2023-03-29T18:58:13.315Z,9.40
2023-03-29T19:03:18.106Z,9.40
2023-03-29T19:08:24.153Z,9.40
2023-03-29T19:13:28.689Z,9.50
2023-03-29T19:18:33.609Z,9.50
2023-03-29T19:23:39.760Z,9.40
2023-03-29T19:28:44.773Z,9.50
2023-03-29T19:33:49.402Z,9.40
2023-03-29T19:38:55.721Z,9.40
2023-03-29T19:44:00.176Z,9.40
2023-03-29T19:49:05.867Z,9.40
2023-03-29T19:54:14.239Z,9.30
2023-03-29T19:59:20.214Z,9.30
2023-03-29T20:04:25.346Z,9.20
2023-03-29T20:09:31.420Z,9.20
2023-03-29T20:14:40.100Z,9.20
2023-03-29T20:19:44.361Z,9.30
2023-03-29T20:24:50.443Z,9.20
2023-03-29T20:29:54.757Z,9.20
2023-03-29T20:34:59.253Z,9.20
2023-03-29T20:40:05.520Z,9.20
2023-03-29T20:45:18.642Z,9.20
2023-03-29T20:50:26.181Z,9.20
2023-03-29T20:55:33.192Z,9.20
2023-03-29T21:00:37.706Z,9.30
2023-03-29T21:05:41.180Z,9.20
2023-03-29T21:10:47.806Z,9.20
2023-03-29T21:15:52.083Z,9.20
2023-03-29T21:20:55.435Z,9.20
2023-03-29T21:26:00.114Z,9.20
2023-03-29T21:31:05.415Z,9.20
2023-03-29T21:36:09.935Z,9.10
2023-03-29T21:41:15.109Z,9.10
2023-03-29T21:46:18.670Z,9.00
2023-03-29T21:51:22.054Z,9.10
2023-03-29T21:56:28.141Z,9.00
2023-03-29T22:01:31.639Z,9.00
2023-03-29T22:06:35.081Z,9.00
2023-03-29T22:11:39.721Z,8.90
2023-03-29T22:16:45.629Z,8.90
2023-03-29T22:21:49.573Z,8.90
2023-03-29T22:26:54.268Z,8.80
2023-03-29T22:31:57.752Z,8.80
2023-03-29T22:37:01.865Z,8.80
2023-03-29T22:42:07.270Z,8.80
2023-03-29T22:47:11.016Z,8.90
2023-03-29T22:52:14.358Z,8.90
2023-03-29T22:57:19.701Z,8.90
2023-03-29T23:02:23.035Z,9.00
2023-03-29T23:07:28.106Z,9.00
2023-03-29T23:12:33.098Z,9.00
2023-03-29T23:17:37.338Z,9.00
2023-03-29T23:22:41.346Z,9.00
2023-03-29T23:27:46.101Z,8.90
2023-03-29T23:32:49.872Z,8.80
2023-03-29T23:37:54.295Z,8.70
2023-03-29T23:43:00.527Z,8.70
2023-03-29T23:48:03.996Z,8.70
2023-03-29T23:53:07.363Z,8.70
2023-03-29T23:58:12.251Z,8.70
